createdAt,value
2023-04-26T00:02:50.403Z,7.22
2023-04-26T00:07:49.929Z,8.95
2023-04-26T00:12:46.851Z,6.68
2023-04-26T00:17:43.888Z,6.75
2023-04-26T00:22:40.825Z,5.95
2023-04-26T00:27:38.412Z,6.72
2023-04-26T00:32:35.384Z,6.53
2023-04-26T00:37:32.237Z,6.53
2023-04-26T00:42:29.196Z,5.53
2023-04-26T00:47:28.758Z,6.78
2023-04-26T00:52:26.767Z,6.95
2023-04-26T00:57:23.973Z,7.63
2023-04-26T01:02:21.057Z,6.60
2023-04-26T01:07:19.129Z,5.30
2023-04-26T01:12:16.626Z,6.53
2023-04-26T01:17:13.489Z,6.75
2023-04-26T01:22:10.621Z,6.80
2023-04-26T01:27:08.463Z,6.53
2023-04-26T01:32:05.661Z,8.20
2023-04-26T01:37:02.389Z,8.43
2023-04-26T01:41:59.144Z,8.23
2023-04-26T01:46:56.599Z,8.18
2023-04-26T01:51:55.249Z,8.75
2023-04-26T01:56:54.021Z,8.75
2023-04-26T02:01:50.777Z,8.55
2023-04-26T02:06:48.450Z,7.53
2023-04-26T02:11:46.517Z,8.55
2023-04-26T02:16:44.389Z,6.95
2023-04-26T02:21:55.048Z,7.95
2023-04-26T02:26:53.814Z,7.05
2023-04-26T02:31:50.827Z,6.68
2023-04-26T02:36:48.274Z,6.47
2023-04-26T02:41:45.761Z,7.88
2023-04-26T02:46:42.722Z,6.50
2023-04-26T02:51:41.532Z,6.50
2023-04-26T02:56:38.493Z,6.88
2023-04-26T03:01:35.978Z,7.47
2023-04-26T03:06:32.833Z,6.25
2023-04-26T03:11:29.684Z,7.97
2023-04-26T03:16:28.394Z,7.47
2023-04-26T03:21:27.288Z,7.32
2023-04-26T03:26:24.245Z,7.43
2023-04-26T03:31:22.312Z,7.22
2023-04-26T03:36:19.132Z,7.65
2023-04-26T03:41:16.948Z,7.47
2023-04-26T03:46:14.610Z,6.55
2023-04-26T03:51:11.586Z,7.10
2023-04-26T03:56:08.416Z,11.82
2023-04-26T04:01:08.038Z,9.48
2023-04-26T04:06:05.674Z,9.63
2023-04-26T04:11:02.567Z,9.10
2023-04-26T04:16:00.211Z,9.88
2023-04-26T04:20:57.974Z,7.35
2023-04-26T04:25:55.026Z,7.22
2023-04-26T04:30:52.349Z,14.30
2023-04-26T04:35:49.632Z,6.00
2023-04-26T04:40:49.361Z,11.80
2023-04-26T04:45:46.921Z,10.65
2023-04-26T04:50:43.838Z,7.90
2023-04-26T04:55:40.949Z,7.53
2023-04-26T05:00:40.252Z,6.22
2023-04-26T05:05:47.261Z,5.22
2023-04-26T05:10:45.697Z,7.85
2023-04-26T05:15:43.550Z,7.70
2023-04-26T05:20:41.022Z,6.70
2023-04-26T05:25:37.960Z,9.35
2023-04-26T05:31:01.866Z,6.55
2023-04-26T05:36:29.880Z,6.78
2023-04-26T05:41:27.612Z,7.28
2023-04-26T06:01:14.518Z,5.18
2023-04-26T06:06:34.529Z,4.13
2023-04-26T06:11:31.757Z,4.20
2023-04-26T06:16:29.558Z,3.67
2023-04-26T06:21:29.097Z,4.00
2023-04-26T06:26:30.186Z,5.80
2023-04-26T06:31:27.909Z,5.15
2023-04-26T06:36:28.705Z,4.38
2023-04-26T06:41:26.520Z,3.80
2023-04-26T06:46:23.627Z,4.70
2023-04-26T06:51:23.903Z,4.03
2023-04-26T06:56:23.103Z,4.45
2023-04-26T07:01:20.329Z,4.05
2023-04-26T07:06:17.588Z,3.10
2023-04-26T07:11:16.524Z,5.28
2023-04-26T07:16:20.390Z,4.30
2023-04-26T07:21:19.185Z,3.58
2023-04-26T07:26:16.179Z,2.00
2023-04-26T07:31:13.351Z,2.47
2023-04-26T07:36:11.300Z,2.85
2023-04-26T07:41:15.908Z,2.85
2023-04-26T07:46:14.428Z,2.22
2023-04-26T07:51:19.459Z,1.33
2023-04-26T07:56:16.337Z,4.22
2023-04-26T08:01:13.725Z,2.00
2023-04-26T08:06:22.264Z,1.52
2023-04-26T08:11:19.406Z,5.55
2023-04-26T08:16:20.541Z,1.60
2023-04-26T08:21:18.141Z,5.55
2023-04-26T08:26:19.423Z,4.03
2023-04-26T08:31:19.357Z,2.63
2023-04-26T08:36:17.241Z,3.53
2023-04-26T08:41:14.507Z,4.30
2023-04-26T08:46:16.750Z,4.45
2023-04-26T08:51:15.636Z,1.75
2023-04-26T08:56:31.227Z,4.95
2023-04-26T09:01:33.221Z,5.55
2023-04-26T09:06:32.411Z,4.20
2023-04-26T09:11:30.907Z,4.70
2023-04-26T09:16:36.004Z,3.00
2023-04-26T09:21:33.090Z,5.13
2023-04-26T09:26:30.606Z,6.90
2023-04-26T09:31:38.968Z,3.03
2023-04-26T09:36:50.987Z,2.28
2023-04-26T09:41:48.666Z,4.15
2023-04-26T09:46:58.507Z,2.28
2023-04-26T09:52:06.215Z,3.83
2023-04-26T09:57:03.867Z,1.27
2023-04-26T10:02:03.227Z,3.20
2023-04-26T10:07:01.772Z,1.25
2023-04-26T10:12:01.112Z,3.53
2023-04-26T10:16:59.286Z,3.25
2023-04-26T10:22:01.307Z,1.88
2023-04-26T10:27:00.936Z,1.23
2023-04-26T10:32:10.337Z,1.27
2023-04-26T10:37:12.783Z,2.70
2023-04-26T10:42:25.628Z,2.08
2023-04-26T10:47:27.541Z,1.25
2023-04-26T10:52:28.299Z,1.95
2023-04-26T10:57:50.062Z,2.55
2023-04-26T11:02:58.145Z,1.83
2023-04-26T11:08:04.945Z,1.65
2023-04-26T11:13:03.134Z,2.22
2023-04-26T11:18:20.243Z,2.53
2023-04-26T11:23:19.495Z,3.40
2023-04-26T11:28:21.960Z,1.05
2023-04-26T11:33:23.122Z,2.55
2023-04-26T11:38:22.914Z,9.85
2023-04-26T11:43:20.309Z,3.55
2023-04-26T11:48:17.850Z,1.63
2023-04-26T11:53:24.288Z,1.88
2023-04-26T11:58:21.997Z,2.15
2023-04-26T12:03:19.052Z,1.42
2023-04-26T12:08:29.515Z,1.75
2023-04-26T12:13:29.185Z,5.82
2023-04-26T12:18:30.681Z,1.38
2023-04-26T12:23:36.071Z,4.15
2023-04-26T12:28:33.224Z,2.08
2023-04-26T12:33:30.506Z,2.42
2023-04-26T12:38:28.114Z,1.58
2023-04-26T12:43:25.785Z,2.40
2023-04-26T13:09:20.062Z,2.38
2023-04-26T13:14:16.935Z,5.55
2023-04-26T13:19:13.887Z,1.70
2023-04-26T13:24:11.108Z,5.00
2023-04-26T13:29:08.902Z,2.08
2023-04-26T13:34:06.401Z,1.45
2023-04-26T13:39:04.708Z,0.80
2023-04-26T13:44:01.725Z,3.60
2023-04-26T13:48:59.596Z,2.95
2023-04-26T13:53:56.919Z,3.42
2023-04-26T13:58:55.684Z,2.40
2023-04-26T14:03:56.024Z,2.30
2023-04-26T14:08:54.463Z,2.80
2023-04-26T14:13:55.333Z,2.95
2023-04-26T14:18:52.651Z,3.90
2023-04-26T14:23:50.559Z,2.20
2023-04-26T14:28:48.490Z,6.78
2023-04-26T14:33:45.591Z,1.85
2023-04-26T14:38:42.893Z,1.27
2023-04-26T14:43:41.114Z,4.03
2023-04-26T14:48:38.936Z,8.27
2023-04-26T14:53:36.052Z,3.13
2023-04-26T14:58:33.114Z,7.13
2023-04-26T15:03:32.157Z,8.73
2023-04-26T15:08:29.968Z,4.97
2023-04-26T15:13:26.801Z,6.60
2023-04-26T15:18:28.058Z,2.67
2023-04-26T15:23:25.327Z,2.78
2023-04-26T15:28:22.923Z,3.10
2023-04-26T15:33:22.900Z,2.22
2023-04-26T15:38:20.149Z,2.95
2023-04-26T15:43:17.694Z,3.47
2023-04-26T15:48:16.950Z,2.35
2023-04-26T15:53:16.595Z,1.98
2023-04-26T15:58:13.971Z,3.28
2023-04-26T16:03:11.384Z,2.47
2023-04-26T16:08:11.218Z,9.10
2023-04-26T16:13:08.185Z,2.60
2023-04-26T16:18:05.304Z,2.55
2023-04-26T16:23:02.585Z,1.67
2023-04-26T16:28:00.466Z,11.93
2023-04-26T16:32:57.474Z,1.83
2023-04-26T16:37:54.452Z,1.77
2023-04-26T16:42:51.529Z,2.40
2023-04-26T16:47:49.543Z,3.65
2023-04-26T16:52:46.332Z,2.83
2023-04-26T16:57:43.346Z,2.45
2023-04-26T17:02:41.414Z,3.67
2023-04-26T17:07:39.018Z,2.53
2023-04-26T17:12:36.106Z,5.25
2023-04-26T17:17:36.099Z,2.33
2023-04-26T17:22:32.904Z,2.67
2023-04-26T17:27:31.131Z,2.58
2023-04-26T17:32:28.389Z,5.20
2023-04-26T17:37:26.057Z,3.25
2023-04-26T17:42:22.993Z,6.85
2023-04-26T17:47:21.680Z,3.97
2023-04-26T17:52:18.615Z,4.80
2023-04-26T17:57:17.290Z,3.33
2023-04-26T18:02:14.222Z,3.95
2023-04-26T18:07:12.618Z,2.50
2023-04-26T18:12:09.578Z,3.85
2023-04-26T18:17:08.228Z,4.80
2023-04-26T18:22:06.601Z,5.18
2023-04-26T18:27:05.682Z,5.68
2023-04-26T18:32:03.059Z,5.80
2023-04-26T18:36:59.997Z,4.95
2023-04-26T18:41:57.641Z,5.35
2023-04-26T18:46:56.308Z,2.17
2023-04-26T18:51:53.118Z,2.65
2023-04-26T18:56:50.123Z,2.05
2023-04-26T19:01:48.561Z,2.95
2023-04-26T19:06:47.426Z,3.58
2023-04-26T19:11:44.323Z,4.50
2023-04-26T19:16:41.669Z,2.42
2023-04-26T19:21:39.741Z,1.30
2023-04-26T19:26:38.138Z,1.83
2023-04-26T19:31:35.192Z,3.80
2023-04-26T19:36:34.154Z,7.18
2023-04-26T19:41:30.992Z,1.85
2023-04-26T19:46:28.659Z,1.73
2023-04-26T19:51:25.711Z,2.03
2023-04-26T19:56:23.486Z,4.15
2023-04-26T20:01:20.618Z,3.35
2023-04-26T20:06:18.591Z,4.07
2023-04-26T20:11:16.276Z,0.45
2023-04-26T20:16:13.304Z,0.20
2023-04-26T20:21:10.190Z,0.20
2023-04-26T20:26:07.608Z,0.73
2023-04-26T20:31:04.602Z,0.38
2023-04-26T20:36:01.418Z,0.15
2023-04-26T20:40:59.156Z,0.28
2023-04-26T20:45:56.904Z,0.30
2023-04-26T20:50:54.265Z,0.95
2023-04-26T20:55:52.305Z,0.03
2023-04-26T21:00:49.884Z,0.10
2023-04-26T21:05:47.602Z,0.15
2023-04-26T21:10:44.615Z,1.38
2023-04-26T21:15:41.509Z,0.73
2023-04-26T21:20:38.494Z,0.20
2023-04-26T21:25:36.175Z,0.38
2023-04-26T21:30:33.072Z,0.10
2023-04-26T21:35:30.087Z,0.57
2023-04-26T21:40:26.999Z,0.88
2023-04-26T21:45:24.547Z,0.10
2023-04-26T21:50:21.598Z,0.28
2023-04-26T21:55:18.659Z,0.00
2023-04-26T22:00:16.665Z,1.05
2023-04-26T22:05:14.136Z,1.65
2023-04-26T22:10:11.006Z,5.40
2023-04-26T22:15:08.788Z,5.78
2023-04-26T22:20:06.995Z,3.75
2023-04-26T22:25:05.554Z,3.88
2023-04-26T22:30:12.381Z,4.18
2023-04-26T22:35:17.655Z,4.70
2023-04-26T22:40:15.633Z,5.20
2023-04-26T22:45:13.603Z,6.78
2023-04-26T22:50:11.725Z,5.45
2023-04-26T22:55:09.701Z,4.38
2023-04-26T23:00:09.355Z,3.42
2023-04-26T23:05:09.223Z,3.90
2023-04-26T23:10:07.014Z,4.03
2023-04-26T23:15:04.673Z,6.88
2023-04-26T23:20:10.994Z,5.18
2023-04-26T23:25:09.432Z,4.68
2023-04-26T23:30:07.511Z,4.53
2023-04-26T23:35:05.979Z,6.35
2023-04-26T23:40:05.104Z,6.82
2023-04-26T23:45:01.943Z,5.00
2023-04-26T23:49:58.842Z,5.90
2023-04-26T23:54:56.308Z,5.10
2023-04-26T23:59:54.034Z,7.20
